Time;durP1;ratioP1;P1;durP2;ratioP2;P2;SDS_P1;SDS_P2;PMS_P1;PMS_P2;Temp;Humidity;BMP_temperature;BMP_pressure;BME280_temperature;BME280_humidity;BME280_pressure;Samples;Min_cycle;Max_cycle;Signal;HPM_P1;HPM_P2
2022/03/01 00:00:40;;;;;;;8.00;3.92;;;21.40;51.30;;;;;;4957551;28;20189;-69
2022/03/01 00:03:07;;;;;;;5.05;4.10;;;21.40;51.20;;;;;;4973447;28;20204;-70
2022/03/01 00:05:34;;;;;;;4.28;3.80;;;21.40;51.10;;;;;;4974697;28;20252;-71
2022/03/01 00:08:00;;;;;;;4.95;3.97;;;21.40;50.90;;;;;;4973601;28;20174;-70
2022/03/01 00:10:25;;;;;;;4.82;4.30;;;21.40;51.10;;;;;;4957250;28;20197;-70
2022/03/01 00:12:52;;;;;;;4.43;3.95;;;21.40;50.90;;;;;;5013033;23;20244;-74
2022/03/01 00:15:17;;;;;;;4.82;3.97;;;21.40;51.10;;;;;;4991924;28;20189;-74
2022/03/01 00:17:43;;;;;;;3.97;3.60;;;21.40;51.10;;;;;;4976286;28;20609;-74
2022/03/01 00:20:10;;;;;;;4.03;3.63;;;21.40;51.20;;;;;;4993594;28;20716;-74
2022/03/01 00:22:36;;;;;;;5.10;3.33;;;21.30;51.00;;;;;;5007506;28;20649;-74
2022/03/01 00:25:03;;;;;;;3.70;3.25;;;21.30;51.20;;;;;;4991694;28;20181;-74
2022/03/01 00:27:29;;;;;;;5.63;3.53;;;21.30;51.30;;;;;;4992770;28;20216;-74
2022/03/01 00:29:56;;;;;;;4.43;3.30;;;21.40;51.30;;;;;;4991804;28;20208;-73
2022/03/01 00:32:22;;;;;;;4.47;3.30;;;21.40;51.30;;;;;;5007843;28;20223;-73
2022/03/01 00:34:47;;;;;;;3.90;3.47;;;21.40;51.30;;;;;;4992455;28;20188;-74
2022/03/01 00:37:13;;;;;;;6.13;3.40;;;21.40;51.30;;;;;;4992450;28;20197;-73
2022/03/01 00:39:39;;;;;;;3.50;3.20;;;21.40;51.30;;;;;;4992332;28;20243;-73
2022/03/01 00:42:05;;;;;;;4.20;3.65;;;21.40;51.40;;;;;;4992443;28;20212;-73
2022/03/01 00:44:31;;;;;;;4.28;3.88;;;21.40;52.00;;;;;;4992360;28;20219;-73
2022/03/01 00:46:57;;;;;;;3.75;3.45;;;21.40;51.50;;;;;;4992356;28;20216;-73
2022/03/01 00:49:23;;;;;;;4.70;4.22;;;21.40;51.40;;;;;;4991366;28;20196;-73
2022/03/01 00:51:48;;;;;;;4.47;4.00;;;21.40;51.20;;;;;;4992147;28;20233;-73
2022/03/01 00:54:14;;;;;;;4.70;4.30;;;21.40;51.30;;;;;;4992357;28;20223;-73
2022/03/01 00:56:40;;;;;;;5.75;4.30;;;21.40;51.30;;;;;;4992421;28;20280;-73
2022/03/01 00:59:07;;;;;;;4.38;3.97;;;21.30;51.20;;;;;;4991887;28;20193;-73
2022/03/01 01:01:34;;;;;;;4.82;4.05;;;21.40;51.30;;;;;;4991737;28;20742;-73
2022/03/01 01:03:59;;;;;;;5.80;4.50;;;21.30;51.00;;;;;;4992377;28;20215;-73
2022/03/01 01:06:25;;;;;;;4.25;3.83;;;21.30;50.90;;;;;;4975624;28;20221;-73
2022/03/01 01:08:51;;;;;;;4.55;4.13;;;21.30;50.90;;;;;;4992276;28;20195;-73
2022/03/01 01:11:17;;;;;;;4.55;3.95;;;21.30;51.10;;;;;;4991935;28;20208;-74
2022/03/01 01:13:43;;;;;;;4.97;3.95;;;21.30;51.00;;;;;;4992220;28;20593;-73
2022/03/01 01:16:08;;;;;;;3.63;3.30;;;21.30;51.00;;;;;;4975646;28;20189;-74
2022/03/01 01:18:36;;;;;;;4.75;3.88;;;21.40;51.20;;;;;;4992199;28;20177;-73
2022/03/01 01:21:02;;;;;;;3.90;3.50;;;21.30;51.10;;;;;;4991470;28;20189;-72
2022/03/01 01:23:28;;;;;;;4.32;3.42;;;21.30;51.20;;;;;;4992113;28;20259;-73
2022/03/01 01:25:53;;;;;;;3.70;3.30;;;21.30;51.20;;;;;;5008052;28;20208;-73
2022/03/01 01:28:19;;;;;;;3.97;3.40;;;21.30;51.20;;;;;;4991788;28;20680;-73
2022/03/01 01:30:45;;;;;;;3.65;3.35;;;21.30;51.20;;;;;;4991924;28;20188;-73
2022/03/01 01:33:11;;;;;;;3.03;2.72;;;21.30;51.30;;;;;;4991740;28;20818;-73
2022/03/01 01:35:37;;;;;;;4.38;3.28;;;21.30;51.30;;;;;;4992134;28;20193;-72
2022/03/01 01:38:04;;;;;;;5.57;3.63;;;21.30;51.30;;;;;;4991948;28;20239;-73
2022/03/01 01:40:33;;;;;;;3.65;3.35;;;21.30;51.30;;;;;;4992855;28;20283;-73
2022/03/01 01:43:00;;;;;;;4.28;3.88;;;21.30;51.20;;;;;;4991621;28;20425;-73
2022/03/01 01:45:28;;;;;;;4.57;4.18;;;21.30;51.30;;;;;;5007765;28;20216;-73
2022/03/01 01:47:56;;;;;;;4.55;4.15;;;21.30;51.20;;;;;;4991679;28;20184;-73
2022/03/01 01:50:24;;;;;;;6.88;5.82;;;21.30;51.20;;;;;;4991674;28;20192;-73
2022/03/01 01:52:53;;;;;;;5.07;4.57;;;21.30;51.10;;;;;;4991258;28;20216;-73
2022/03/01 01:55:20;;;;;;;4.70;4.30;;;21.30;50.90;;;;;;4992672;28;20177;-73
2022/03/01 01:57:47;;;;;;;4.45;4.03;;;21.30;50.90;;;;;;4991759;28;20235;-73
2022/03/01 02:00:15;;;;;;;4.88;4.10;;;21.30;51.00;;;;;;4992516;28;20191;-73
2022/03/01 02:02:43;;;;;;;5.22;4.30;;;21.30;50.90;;;;;;4995208;28;20208;-73
2022/03/01 02:05:10;;;;;;;4.90;4.40;;;21.30;51.00;;;;;;4995219;28;20221;-73
2022/03/01 02:07:37;;;;;;;3.65;3.35;;;21.30;51.00;;;;;;4995173;28;20201;-73
2022/03/01 02:10:07;;;;;;;4.60;3.90;;;21.20;50.90;;;;;;5011392;28;20263;-73
2022/03/01 02:12:33;;;;;;;4.20;3.80;;;21.30;51.10;;;;;;4996000;28;20216;-73
2022/03/01 02:14:59;;;;;;;4.15;3.75;;;21.30;51.20;;;;;;4979097;28;20204;-74
2022/03/01 02:17:27;;;;;;;3.72;3.42;;;21.30;51.20;;;;;;4994905;28;20193;-73
2022/03/01 02:19:53;;;;;;;5.13;3.60;;;21.30;51.20;;;;;;4995297;28;20185;-73
2022/03/01 02:22:19;;;;;;;4.00;3.58;;;21.30;51.20;;;;;;4995865;28;20347;-74
2022/03/01 02:24:46;;;;;;;3.78;3.47;;;21.30;51.20;;;;;;4994722;28;20563;-74
2022/03/01 02:27:12;;;;;;;3.85;3.53;;;21.20;51.20;;;;;;5011199;28;20213;-73
2022/03/01 02:29:37;;;;;;;4.18;3.75;;;21.20;51.20;;;;;;4978625;28;20615;-74
2022/03/01 02:32:07;;;;;;;5.18;4.10;;;21.30;51.30;;;;;;4994563;28;20211;-74
2022/03/01 02:34:34;;;;;;;5.00;4.22;;;21.30;51.20;;;;;;4978715;28;20189;-73
2022/03/01 02:37:01;;;;;;;4.57;4.18;;;21.30;51.20;;;;;;4994624;28;20197;-73
2022/03/01 02:39:27;;;;;;;4.57;4.18;;;21.20;51.00;;;;;;4994586;28;20189;-73
2022/03/01 02:41:52;;;;;;;4.28;3.78;;;21.30;50.90;;;;;;4978200;28;20231;-73
2022/03/01 02:44:18;;;;;;;4.97;4.10;;;21.20;51.00;;;;;;5011138;28;20187;-74
2022/03/01 02:46:45;;;;;;;4.60;4.10;;;21.20;50.80;;;;;;4995857;28;20701;-73
2022/03/01 02:49:10;;;;;;;4.80;4.30;;;21.20;51.20;;;;;;4994620;28;20216;-73
2022/03/01 02:51:37;;;;;;;4.70;4.30;;;21.20;50.80;;;;;;5010873;28;20229;-73
2022/03/01 02:54:06;;;;;;;4.72;4.30;;;21.20;50.50;;;;;;4994578;28;20188;-74
2022/03/01 02:56:32;;;;;;;4.90;3.75;;;21.20;50.80;;;;;;4994366;28;20184;-73
2022/03/01 02:58:59;;;;;;;5.30;3.97;;;21.20;50.90;;;;;;4995865;28;20273;-74
2022/03/01 03:01:27;;;;;;;3.72;3.40;;;21.20;50.90;;;;;;4994083;28;20201;-73
2022/03/01 03:03:53;;;;;;;3.83;3.53;;;21.20;50.90;;;;;;4994363;28;20185;-73
2022/03/01 03:06:19;;;;;;;4.15;3.70;;;21.20;51.00;;;;;;4994280;28;20263;-73
2022/03/01 03:08:45;;;;;;;4.15;3.75;;;21.20;51.10;;;;;;4978194;28;20189;-73
2022/03/01 03:11:12;;;;;;;4.45;3.38;;;21.20;51.10;;;;;;4977199;28;20185;-73
2022/03/01 03:13:38;;;;;;;4.18;3.78;;;21.20;51.10;;;;;;4977542;28;20268;-73
2022/03/01 03:16:07;;;;;;;3.72;3.42;;;21.20;51.00;;;;;;4993949;28;20200;-73
2022/03/01 03:18:34;;;;;;;4.05;3.65;;;21.30;51.20;;;;;;4994118;28;20220;-73
2022/03/01 03:21:00;;;;;;;4.63;4.10;;;21.20;51.00;;;;;;4977516;28;20204;-73
2022/03/01 03:23:26;;;;;;;4.45;4.05;;;21.20;51.10;;;;;;4994069;28;20178;-73
2022/03/01 03:25:52;;;;;;;4.63;3.83;;;21.20;51.10;;;;;;4993734;28;20251;-73
2022/03/01 03:28:18;;;;;;;4.38;4.07;;;21.20;51.10;;;;;;4977425;28;20642;-73
2022/03/01 03:30:43;;;;;;;4.22;3.83;;;21.20;51.10;;;;;;4993820;28;20192;-72
2022/03/01 03:33:09;;;;;;;4.60;4.20;;;21.20;50.90;;;;;;4977154;28;20217;-73
2022/03/01 03:35:35;;;;;;;4.47;4.07;;;21.20;51.00;;;;;;4993650;28;20279;-74
2022/03/01 03:38:01;;;;;;;4.90;4.03;;;21.20;50.80;;;;;;4977308;28;20282;-73
2022/03/01 03:40:27;;;;;;;4.55;3.97;;;21.20;50.60;;;;;;4993770;28;20216;-73
2022/03/01 03:42:52;;;;;;;4.20;3.80;;;21.20;50.70;;;;;;4993203;28;20205;-73
2022/03/01 03:45:18;;;;;;;4.18;3.65;;;21.10;50.60;;;;;;4977350;28;20283;-73
2022/03/01 03:47:44;;;;;;;5.05;3.78;;;21.20;50.90;;;;;;4996652;28;20185;-73
2022/03/01 03:50:10;;;;;;;4.57;3.75;;;21.20;50.70;;;;;;4993261;28;20192;-73
2022/03/01 03:52:39;;;;;;;4.15;3.83;;;21.20;50.80;;;;;;4993265;28;20232;-73
2022/03/01 03:55:05;;;;;;;3.75;3.42;;;21.20;50.90;;;;;;4993528;28;20191;-73
2022/03/01 03:57:33;;;;;;;4.68;3.42;;;21.20;50.90;;;;;;4995769;28;20189;-73
2022/03/01 04:00:00;;;;;;;3.88;3.20;;;21.10;50.90;;;;;;4993296;28;20666;-73
2022/03/01 04:02:26;;;;;;;3.28;2.97;;;21.20;51.00;;;;;;4992931;28;20698;-73
2022/03/01 04:04:52;;;;;;;3.70;3.40;;;21.20;51.00;;;;;;4994059;28;20192;-73
2022/03/01 04:07:18;;;;;;;3.55;3.25;;;21.20;51.00;;;;;;4992888;28;20221;-73
2022/03/01 04:09:44;;;;;;;3.58;3.28;;;21.20;51.10;;;;;;4993278;28;20231;-73
2022/03/01 04:12:10;;;;;;;4.10;3.70;;;21.20;51.00;;;;;;4992557;28;20239;-73
2022/03/01 04:14:36;;;;;;;4.22;3.83;;;21.20;51.10;;;;;;4976925;28;20191;-73
2022/03/01 04:17:03;;;;;;;3.63;3.33;;;21.20;51.70;;;;;;4993212;28;20181;-73
2022/03/01 04:19:29;;;;;;;4.20;3.80;;;21.10;51.00;;;;;;4992840;28;20188;-73
2022/03/01 04:21:55;;;;;;;4.57;4.18;;;21.20;51.00;;;;;;4993630;28;20295;-73
2022/03/01 04:24:21;;;;;;;4.50;4.10;;;21.20;51.00;;;;;;4976921;28;20235;-73
2022/03/01 04:26:47;;;;;;;4.35;4.03;;;21.10;50.80;;;;;;4992219;28;20235;-74
2022/03/01 04:29:13;;;;;;;4.47;4.07;;;21.20;51.00;;;;;;4992648;28;20192;-73
2022/03/01 04:31:39;;;;;;;4.35;3.85;;;21.20;50.80;;;;;;4992582;28;20205;-73
2022/03/01 04:34:05;;;;;;;4.22;3.83;;;21.20;50.90;;;;;;4992511;28;20677;-72
2022/03/01 04:36:30;;;;;;;4.47;4.07;;;21.20;50.80;;;;;;4976232;28;20185;-73
2022/03/01 04:38:56;;;;;;;4.50;4.10;;;21.20;50.80;;;;;;4976301;28;20199;-73
2022/03/01 04:41:22;;;;;;;4.28;3.88;;;21.10;50.50;;;;;;4976204;28;20212;-72
2022/03/01 04:43:48;;;;;;;5.55;4.30;;;21.10;50.50;;;;;;4976372;28;20211;-73
2022/03/01 04:46:15;;;;;;;4.25;3.80;;;21.10;50.50;;;;;;4992726;28;20622;-73
2022/03/01 04:48:41;;;;;;;4.03;3.63;;;21.10;50.60;;;;;;4976070;28;20188;-73
2022/03/01 04:51:07;;;;;;;4.07;3.67;;;21.10;50.60;;;;;;4975941;28;20185;-72
2022/03/01 04:53:33;;;;;;;3.75;3.45;;;21.10;50.60;;;;;;4975925;28;20216;-73
2022/03/01 04:55:59;;;;;;;3.75;3.45;;;21.10;50.80;;;;;;4976073;28;20196;-73
2022/03/01 04:58:24;;;;;;;4.07;3.33;;;21.10;50.80;;;;;;4976139;28;20181;-73
2022/03/01 05:00:52;;;;;;;3.67;3.38;;;21.10;50.70;;;;;;4992054;28;20571;-73
2022/03/01 05:03:19;;;;;;;3.55;3.25;;;21.10;50.80;;;;;;4975464;28;20299;-73
2022/03/01 05:05:44;;;;;;;3.92;3.13;;;21.10;50.90;;;;;;4976014;28;20213;-73
2022/03/01 05:08:10;;;;;;;3.80;3.50;;;21.10;50.90;;;;;;4991875;28;20247;-73
2022/03/01 05:10:36;;;;;;;3.75;3.45;;;21.10;50.80;;;;;;4991894;28;20195;-74
2022/03/01 05:13:03;;;;;;;3.80;3.50;;;21.10;50.80;;;;;;4991617;28;20208;-73
2022/03/01 05:15:30;;;;;;;3.72;3.42;;;21.10;50.90;;;;;;4992259;28;20193;-73
2022/03/01 05:17:58;;;;;;;3.83;3.53;;;21.10;51.00;;;;;;4975746;28;20189;-73
2022/03/01 05:20:25;;;;;;;3.75;3.45;;;21.10;50.80;;;;;;4992092;28;20196;-73
2022/03/01 05:22:53;;;;;;;4.40;4.00;;;21.10;50.80;;;;;;4991490;28;20216;-73
2022/03/01 05:25:21;;;;;;;4.78;3.95;;;21.10;50.80;;;;;;4991863;28;20177;-73
2022/03/01 05:27:49;;;;;;;5.03;4.60;;;21.10;50.70;;;;;;4975678;28;20193;-73
2022/03/01 05:30:18;;;;;;;4.47;4.07;;;21.10;50.60;;;;;;4975831;28;20177;-73
2022/03/01 05:32:46;;;;;;;4.93;4.00;;;21.10;50.30;;;;;;4975218;28;20303;-73
2022/03/01 05:35:15;;;;;;;5.68;4.85;;;21.10;50.30;;;;;;4993846;28;20268;-73
2022/03/01 05:37:43;;;;;;;4.00;3.70;;;21.10;51.20;;;;;;4995742;28;20173;-73
2022/03/01 05:40:12;;;;;;;3.90;3.55;;;21.10;50.60;;;;;;4995733;28;20181;-73
2022/03/01 05:42:38;;;;;;;3.22;2.92;;;21.10;50.80;;;;;;4996483;28;20216;-73
2022/03/01 05:45:05;;;;;;;4.00;3.60;;;21.10;50.80;;;;;;4979416;28;20189;-73
2022/03/01 05:47:31;;;;;;;4.10;3.45;;;21.10;50.80;;;;;;4996652;28;20205;-73
2022/03/01 05:49:57;;;;;;;3.58;3.28;;;21.10;50.80;;;;;;4995449;28;20239;-73
2022/03/01 05:52:24;;;;;;;3.67;3.38;;;21.10;50.80;;;;;;4995525;28;20212;-73
2022/03/01 05:54:50;;;;;;;3.80;3.45;;;21.10;50.90;;;;;;4995369;28;20185;-73
2022/03/01 05:57:16;;;;;;;3.78;3.28;;;21.10;50.80;;;;;;4979419;28;20560;-73
2022/03/01 05:59:42;;;;;;;3.50;3.20;;;21.10;50.80;;;;;;4979079;28;20189;-73
2022/03/01 06:02:08;;;;;;;4.45;3.63;;;21.10;50.90;;;;;;4978875;28;20304;-73
2022/03/01 06:04:34;;;;;;;5.53;3.78;;;21.10;51.00;;;;;;4995215;28;20192;-73
2022/03/01 06:07:00;;;;;;;4.28;3.85;;;21.10;51.00;;;;;;4995338;28;20224;-71
2022/03/01 06:09:26;;;;;;;6.18;3.65;;;21.10;51.00;;;;;;4994195;28;20217;-73
2022/03/01 06:11:51;;;;;;;4.47;3.72;;;21.10;51.00;;;;;;5002621;23;21346;-69
2022/03/01 06:14:17;;;;;;;4.80;4.22;;;21.10;51.00;;;;;;4978773;28;20555;-69
2022/03/01 06:16:44;;;;;;;9.55;4.57;;;21.10;51.00;;;;;;4977632;28;20193;-69
2022/03/01 06:19:11;;;;;;;6.25;4.35;;;21.10;50.90;;;;;;4978878;28;20271;-69
2022/03/01 06:21:37;;;;;;;7.47;4.78;;;21.10;50.90;;;;;;4978399;28;20243;-69
2022/03/01 06:24:04;;;;;;;5.60;4.43;;;21.10;50.80;;;;;;4962591;28;20193;-68
2022/03/01 06:26:31;;;;;;;5.38;3.85;;;21.10;50.90;;;;;;4978436;28;20213;-69
2022/03/01 06:28:57;;;;;;;6.70;4.13;;;21.10;51.10;;;;;;4978853;28;20185;-69
2022/03/01 06:31:23;;;;;;;5.80;3.53;;;21.10;51.30;;;;;;4978788;28;20220;-69
2022/03/01 06:33:49;;;;;;;5.05;3.88;;;21.10;51.50;;;;;;4962382;28;20221;-69
2022/03/01 06:36:15;;;;;;;6.80;3.45;;;21.10;51.40;;;;;;4978537;28;20253;-69
2022/03/01 06:38:41;;;;;;;6.25;3.70;;;21.10;51.60;;;;;;4978091;28;20287;-69
2022/03/01 06:41:07;;;;;;;3.55;3.25;;;21.00;51.60;;;;;;4978909;28;20284;-69
2022/03/01 06:43:33;;;;;;;4.38;3.70;;;21.10;52.00;;;;;;4981907;28;20212;-69
2022/03/01 06:45:59;;;;;;;4.47;3.47;;;21.10;52.00;;;;;;4962556;28;20240;-69
2022/03/01 06:48:24;;;;;;;7.75;4.03;;;21.10;51.80;;;;;;4978732;28;20185;-69
2022/03/01 06:50:50;;;;;;;4.43;3.50;;;20.80;45.50;;;;;;4978294;28;20189;-70
2022/03/01 06:53:17;;;;;;;5.18;4.43;;;20.50;49.50;;;;;;4961827;28;20208;-69
2022/03/01 06:55:43;;;;;;;8.80;4.95;;;20.60;51.20;;;;;;4962231;28;20239;-70
2022/03/01 06:58:11;;;;;;;7.43;4.55;;;20.80;50.40;;;;;;4961910;28;20197;-69
2022/03/01 07:00:37;;;;;;;7.03;4.53;;;20.90;50.20;;;;;;4958849;28;20211;-69
2022/03/01 07:03:04;;;;;;;6.47;4.38;;;20.90;50.40;;;;;;4974435;28;20209;-69
2022/03/01 07:05:30;;;;;;;6.28;4.45;;;20.90;50.50;;;;;;4974852;28;20224;-70
2022/03/01 07:07:56;;;;;;;8.52;5.32;;;21.00;50.70;;;;;;4958670;28;20185;-70
2022/03/01 07:10:22;;;;;;;8.55;5.25;;;21.00;50.70;;;;;;4974669;28;20197;-69
2022/03/01 07:12:49;;;;;;;8.98;4.97;;;21.00;50.60;;;;;;4974550;28;20217;-70
2022/03/01 07:15:16;;;;;;;8.00;4.63;;;20.90;50.40;;;;;;4975803;28;20189;-70
2022/03/01 07:17:42;;;;;;;7.22;4.90;;;21.00;50.60;;;;;;4974335;28;20193;-70
2022/03/01 07:20:09;;;;;;;6.50;4.57;;;21.00;50.80;;;;;;4974658;28;20186;-70
2022/03/01 07:22:35;;;;;;;7.88;4.63;;;21.00;50.60;;;;;;4974127;28;20198;-70
2022/03/01 07:25:02;;;;;;;4.45;3.85;;;21.00;50.60;;;;;;4958509;28;20272;-69
2022/03/01 07:27:28;;;;;;;6.75;4.35;;;21.00;48.40;;;;;;4986463;28;20299;-69
2022/03/01 07:29:54;;;;;;;7.75;4.43;;;20.60;48.70;;;;;;4972492;28;20181;-69
2022/03/01 07:32:20;;;;;;;6.50;4.97;;;20.80;50.40;;;;;;4961439;28;20228;-69
2022/03/01 07:34:46;;;;;;;8.18;4.57;;;20.90;49.90;;;;;;4961038;28;20214;-70
2022/03/01 07:37:11;;;;;;;9.95;4.57;;;21.00;49.50;;;;;;4957337;28;20189;-69
2022/03/01 07:39:37;;;;;;;4.78;4.30;;;21.10;49.50;;;;;;4977132;28;20199;-70
2022/03/01 07:42:04;;;;;;;10.25;5.15;;;20.90;48.10;;;;;;4961085;28;20209;-71
2022/03/01 07:44:30;;;;;;;12.02;5.85;;;20.90;49.70;;;;;;4977264;28;20264;-69
2022/03/01 07:46:56;;;;;;;11.32;5.50;;;20.90;49.00;;;;;;4994537;28;20232;-69
2022/03/01 07:49:22;;;;;;;8.93;5.38;;;21.00;49.30;;;;;;4977063;28;20177;-70
2022/03/01 07:51:48;;;;;;;7.05;5.05;;;21.00;49.40;;;;;;4994250;28;20203;-69
2022/03/01 07:54:14;;;;;;;8.38;5.13;;;21.10;49.30;;;;;;4976907;28;20211;-69
2022/03/01 07:56:40;;;;;;;5.80;4.82;;;21.00;49.40;;;;;;4977014;28;20293;-70
2022/03/01 07:59:07;;;;;;;7.13;4.57;;;21.10;49.50;;;;;;4976397;28;20189;-69
2022/03/01 08:01:33;;;;;;;6.07;5.47;;;21.10;50.10;;;;;;4976718;28;20189;-69
2022/03/01 08:03:59;;;;;;;9.90;5.57;;;21.10;49.40;;;;;;4960702;28;20199;-70
2022/03/01 08:06:26;;;;;;;14.18;5.40;;;21.10;49.20;;;;;;4977007;28;20232;-69
2022/03/01 08:08:52;;;;;;;6.55;5.00;;;21.20;49.20;;;;;;4960727;28;20192;-70
2022/03/01 08:11:19;;;;;;;7.45;5.53;;;21.20;49.10;;;;;;4960727;28;20189;-70
2022/03/01 08:13:45;;;;;;;9.15;6.03;;;21.30;49.20;;;;;;4960313;28;20297;-70
2022/03/01 08:16:10;;;;;;;9.15;5.68;;;21.20;48.60;;;;;;4960625;28;20192;-70
2022/03/01 08:18:37;;;;;;;7.60;5.38;;;21.20;49.10;;;;;;4960743;28;20203;-70
2022/03/01 08:21:03;;;;;;;6.85;5.40;;;21.30;49.70;;;;;;4960758;28;20189;-70
2022/03/01 08:23:29;;;;;;;6.63;4.95;;;21.30;49.20;;;;;;4960208;28;20715;-70
2022/03/01 08:25:55;;;;;;;8.57;4.43;;;21.30;49.00;;;;;;4960241;28;20217;-69
2022/03/01 08:28:21;;;;;;;8.80;4.68;;;21.40;49.40;;;;;;4993373;28;20177;-69
2022/03/01 08:30:46;;;;;;;7.47;4.38;;;21.30;49.30;;;;;;4960309;28;20234;-70
2022/03/01 08:33:16;;;;;;;5.70;4.63;;;21.40;49.40;;;;;;4976500;28;20205;-69
2022/03/01 08:35:42;;;;;;;6.82;4.53;;;21.40;49.20;;;;;;4976161;28;20193;-70
2022/03/01 08:38:08;;;;;;;6.30;4.40;;;21.40;49.50;;;;;;4976260;28;20208;-69
2022/03/01 08:40:39;;;;;;;4.90;4.40;;;21.40;49.40;;;;;;4960515;28;20188;-69
2022/03/01 08:43:07;;;;;;;4.93;4.43;;;21.40;49.50;;;;;;4959842;28;20211;-70
2022/03/01 08:45:34;;;;;;;6.13;4.47;;;21.40;49.50;;;;;;4959924;28;20199;-69
2022/03/01 08:48:00;;;;;;;6.38;4.43;;;21.40;49.50;;;;;;4993698;28;20197;-69
2022/03/01 08:50:26;;;;;;;5.82;4.65;;;21.40;49.60;;;;;;4960220;28;20216;-69
2022/03/01 08:52:52;;;;;;;4.72;3.95;;;21.40;49.50;;;;;;4993299;28;20274;-70
2022/03/01 08:55:18;;;;;;;6.07;4.63;;;21.50;49.50;;;;;;4976300;28;20180;-69
2022/03/01 08:57:44;;;;;;;6.85;4.72;;;21.50;49.50;;;;;;4976032;28;20185;-70
2022/03/01 09:00:13;;;;;;;5.95;4.40;;;21.50;49.40;;;;;;4993589;28;20680;-69
2022/03/01 09:02:39;;;;;;;6.38;5.03;;;21.50;49.40;;;;;;4975858;28;20204;-69
2022/03/01 09:05:05;;;;;;;5.22;4.55;;;21.50;49.40;;;;;;4975900;28;20192;-70
2022/03/01 09:07:33;;;;;;;6.47;4.10;;;21.50;49.40;;;;;;4993152;28;20211;-70
2022/03/01 09:09:58;;;;;;;4.90;4.35;;;21.50;49.30;;;;;;4958929;28;20189;-69
2022/03/01 09:12:24;;;;;;;4.90;4.40;;;21.50;49.30;;;;;;4959207;28;20219;-69
2022/03/01 09:14:50;;;;;;;4.20;3.83;;;21.50;49.30;;;;;;4959932;28;20196;-70
2022/03/01 09:17:16;;;;;;;5.10;4.38;;;21.50;49.90;;;;;;4993094;28;20220;-69
2022/03/01 09:19:42;;;;;;;5.20;4.43;;;21.50;49.30;;;;;;4975900;28;20200;-70
2022/03/01 09:22:08;;;;;;;4.90;4.15;;;21.50;49.30;;;;;;4992730;28;20211;-70
2022/03/01 09:24:33;;;;;;;5.47;3.88;;;21.50;49.30;;;;;;4959762;28;20193;-70
2022/03/01 09:27:01;;;;;;;5.15;4.25;;;21.50;49.20;;;;;;4975321;28;20224;-69
2022/03/01 09:29:30;;;;;;;4.30;4.00;;;21.50;49.30;;;;;;4992871;28;20187;-69
2022/03/01 09:31:57;;;;;;;5.28;4.05;;;21.50;49.30;;;;;;4959345;28;20201;-69
2022/03/01 09:34:24;;;;;;;4.65;3.95;;;21.50;49.20;;;;;;4992770;28;20189;-70
2022/03/01 09:36:51;;;;;;;5.07;3.95;;;21.50;49.20;;;;;;4992737;28;20195;-70
2022/03/01 09:39:17;;;;;;;3.72;3.42;;;21.50;49.20;;;;;;4959379;28;20181;-69
2022/03/01 09:41:43;;;;;;;4.47;4.07;;;21.50;49.30;;;;;;4975169;28;20197;-72
2022/03/01 09:44:09;;;;;;;5.13;4.10;;;21.50;49.20;;;;;;4975409;28;20331;-69
2022/03/01 09:46:35;;;;;;;5.25;3.80;;;21.50;49.20;;;;;;4959139;28;20220;-70
2022/03/01 09:49:03;;;;;;;4.88;3.38;;;21.50;49.30;;;;;;4975295;28;20200;-69
2022/03/01 09:51:30;;;;;;;4.10;3.80;;;21.50;49.30;;;;;;4975335;28;20181;-69
2022/03/01 09:53:56;;;;;;;4.85;4.03;;;21.50;49.30;;;;;;4975118;28;20188;-69
2022/03/01 09:56:22;;;;;;;4.57;4.18;;;21.50;49.30;;;;;;4959182;28;20184;-70
2022/03/01 09:58:50;;;;;;;4.38;3.97;;;21.50;49.20;;;;;;4959119;28;20193;-70
2022/03/01 10:01:17;;;;;;;3.67;3.38;;;21.50;49.20;;;;;;4959233;28;20195;-70
2022/03/01 10:03:49;;;;;;;4.63;4.03;;;21.50;49.30;;;;;;4958937;28;20211;-70
2022/03/01 10:06:18;;;;;;;4.55;4.10;;;21.60;49.30;;;;;;4975089;28;20219;-70
2022/03/01 10:08:45;;;;;;;4.05;3.67;;;21.50;49.20;;;;;;4959057;28;20204;-70
2022/03/01 10:11:11;;;;;;;4.43;3.70;;;21.50;49.10;;;;;;4959459;28;20182;-70
2022/03/01 10:13:40;;;;;;;4.30;3.50;;;21.50;49.20;;;;;;4958950;28;20212;-70
2022/03/01 10:16:14;;;;;;;3.75;3.45;;;21.50;49.30;;;;;;4959301;28;20280;-70
2022/03/01 10:18:52;;;;;;;4.15;3.75;;;21.50;49.10;;;;;;4959193;28;20211;-70
2022/03/01 10:21:21;;;;;;;5.57;3.67;;;21.60;49.40;;;;;;4975957;28;20216;-70
2022/03/01 10:23:51;;;;;;;4.63;3.30;;;21.50;49.30;;;;;;4978611;28;20212;-69
2022/03/01 10:26:20;;;;;;;4.38;3.75;;;21.50;49.20;;;;;;4978563;28;20216;-70
2022/03/01 10:28:48;;;;;;;3.78;3.40;;;21.50;49.30;;;;;;4978563;28;20239;-69
2022/03/01 10:31:18;;;;;;;3.78;3.47;;;21.50;49.30;;;;;;4962593;28;20239;-70
2022/03/01 10:33:55;;;;;;;4.43;4.07;;;21.50;49.30;;;;;;4962368;28;20200;-69
2022/03/01 10:36:32;;;;;;;4.43;3.80;;;21.50;49.20;;;;;;4962246;28;20251;-70
2022/03/01 10:39:17;;;;;;;3.75;3.45;;;21.50;49.30;;;;;;4978437;28;20279;-70
2022/03/01 10:41:46;;;;;;;3.83;3.40;;;21.50;49.30;;;;;;4995675;28;20177;-70
2022/03/01 10:44:32;;;;;;;4.03;3.63;;;21.60;49.40;;;;;;4978271;28;20192;-69
2022/03/01 10:47:03;;;;;;;3.50;3.20;;;21.50;49.20;;;;;;4961800;28;20247;-69
2022/03/01 10:49:32;;;;;;;3.97;3.53;;;21.50;49.30;;;;;;4962050;28;20196;-70
2022/03/01 10:52:07;;;;;;;4.60;3.40;;;21.50;49.30;;;;;;4977896;28;20209;-69
2022/03/01 10:54:41;;;;;;;4.35;3.97;;;21.50;49.30;;;;;;4962110;28;20195;-70
2022/03/01 10:57:23;;;;;;;4.05;3.75;;;21.50;49.30;;;;;;4961967;28;20192;-69
2022/03/01 10:59:50;;;;;;;4.30;3.90;;;21.60;49.40;;;;;;4995592;28;20177;-69
2022/03/01 11:02:17;;;;;;;4.07;3.67;;;21.50;49.30;;;;;;4977890;28;20216;-69
2022/03/01 11:04:47;;;;;;;3.75;3.45;;;21.60;49.40;;;;;;4961881;28;20196;-70
2022/03/01 11:07:14;;;;;;;3.80;3.40;;;21.50;49.30;;;;;;4977796;28;20224;-69
2022/03/01 11:09:42;;;;;;;3.55;3.25;;;21.50;49.30;;;;;;4971799;28;20193;-70
2022/03/01 11:12:09;;;;;;;3.50;3.20;;;21.60;49.40;;;;;;4977831;28;20216;-69
2022/03/01 11:15:02;;;;;;;3.63;3.33;;;21.50;49.30;;;;;;4994098;28;20533;-70
2022/03/01 11:18:04;;;;;;;4.18;3.30;;;21.50;49.30;;;;;;4977719;28;20187;-70
2022/03/01 11:20:35;;;;;;;3.65;3.35;;;21.50;49.30;;;;;;4994087;28;20180;-69
2022/03/01 11:23:10;;;;;;;4.25;3.78;;;21.50;49.30;;;;;;4993792;28;20208;-70
2022/03/01 11:25:47;;;;;;;4.35;3.95;;;21.60;49.40;;;;;;4993788;28;20251;-69
2022/03/01 11:28:16;;;;;;;3.78;3.47;;;21.50;49.30;;;;;;4977901;28;20186;-70
2022/03/01 11:30:51;;;;;;;3.35;3.05;;;21.50;49.30;;;;;;4977800;28;20169;-69
2022/03/01 11:33:31;;;;;;;3.42;3.13;;;21.50;49.90;;;;;;4992512;28;20215;-70
2022/03/01 11:35:57;;;;;;;3.53;3.22;;;21.50;49.30;;;;;;4993677;28;20169;-70
2022/03/01 11:38:32;;;;;;;3.10;2.90;;;21.50;49.30;;;;;;4977360;28;20181;-70
2022/03/01 11:41:14;;;;;;;3.33;3.03;;;21.50;49.30;;;;;;4977662;28;20180;-69
2022/03/01 11:43:40;;;;;;;3.80;3.50;;;21.50;49.30;;;;;;4993905;28;20303;-70
2022/03/01 11:46:17;;;;;;;3.35;3.08;;;21.50;49.30;;;;;;4993649;28;20288;-70
2022/03/01 11:48:53;;;;;;;4.13;3.63;;;21.50;49.30;;;;;;4993338;28;20263;-70
2022/03/01 11:51:32;;;;;;;3.33;3.03;;;21.50;49.30;;;;;;4977161;28;20215;-70
2022/03/01 11:54:01;;;;;;;3.30;3.00;;;21.60;49.40;;;;;;4993264;28;20208;-70
2022/03/01 11:56:28;;;;;;;3.22;2.92;;;21.50;49.90;;;;;;4993254;28;20215;-70
2022/03/01 11:58:53;;;;;;;2.97;2.78;;;21.50;49.30;;;;;;4977001;28;20219;-70
2022/03/01 12:01:23;;;;;;;3.08;2.78;;;21.50;49.30;;;;;;4993138;28;20189;-69
2022/03/01 12:03:52;;;;;;;3.45;2.85;;;21.60;49.30;;;;;;4976706;28;20255;-70
2022/03/01 12:06:21;;;;;;;3.08;2.88;;;21.50;49.30;;;;;;4976843;28;20209;-70
2022/03/01 12:08:57;;;;;;;3.08;2.78;;;21.50;49.30;;;;;;4993010;28;20204;-70
2022/03/01 12:11:36;;;;;;;3.30;3.00;;;21.50;49.30;;;;;;4994023;28;20260;-70
2022/03/01 12:14:12;;;;;;;3.47;3.17;;;21.50;49.30;;;;;;4989354;23;20263;-72
2022/03/01 12:16:38;;;;;;;4.38;3.33;;;21.50;49.20;;;;;;4976006;28;20220;-72
2022/03/01 12:19:19;;;;;;;3.65;3.35;;;21.50;49.30;;;;;;4975931;28;20199;-72
2022/03/01 12:21:51;;;;;;;3.30;2.97;;;21.50;49.20;;;;;;4992694;28;20271;-72
2022/03/01 12:24:18;;;;;;;3.05;2.83;;;21.50;49.30;;;;;;4976183;28;20216;-72
2022/03/01 12:26:51;;;;;;;2.53;2.33;;;21.50;49.20;;;;;;4976366;28;20686;-72
2022/03/01 12:29:27;;;;;;;3.63;3.30;;;21.50;49.30;;;;;;4976687;28;20181;-72
2022/03/01 12:32:08;;;;;;;3.10;2.80;;;21.50;49.20;;;;;;4976421;28;20263;-72
2022/03/01 12:34:36;;;;;;;2.90;2.70;;;21.60;49.20;;;;;;4993666;28;20184;-72
2022/03/01 12:37:06;;;;;;;3.03;2.83;;;21.60;49.30;;;;;;4976112;28;20225;-72
2022/03/01 12:39:33;;;;;;;3.15;2.95;;;21.50;49.20;;;;;;4976108;28;20231;-72
2022/03/01 12:42:00;;;;;;;3.08;2.80;;;21.50;49.10;;;;;;4976138;28;20234;-70
2022/03/01 12:44:29;;;;;;;3.38;3.08;;;21.50;49.20;;;;;;4960145;28;20181;-72
2022/03/01 12:47:00;;;;;;;3.33;3.03;;;21.60;49.20;;;;;;4959958;28;20704;-72